sensor_id;sensor_type;location;lat;lon;timestamp;pressure;altitude;pressure_sealevel;temperature;humidity
68376;BME280;55318;52.068;5.188;2022-12-29T00:01:35;99949.0;;;12.81;88.26
68376;BME280;55318;52.068;5.188;2022-12-29T00:03:12;99948.0;;;12.87;88.28
68376;BME280;55318;52.068;5.188;2022-12-29T00:04:49;99955.0;;;12.76;88.39
68376;BME280;55318;52.068;5.188;2022-12-29T00:06:26;99946.0;;;12.81;87.81
68376;BME280;55318;52.068;5.188;2022-12-29T00:09:39;99940.0;;;12.91;87.52
68376;BME280;55318;52.068;5.188;2022-12-29T00:11:19;99944.0;;;12.82;87.5
68376;BME280;55318;52.068;5.188;2022-12-29T00:12:55;99938.0;;;12.84;87.41
68376;BME280;55318;52.068;5.188;2022-12-29T00:16:08;99933.0;;;12.78;87.62
68376;BME280;55318;52.068;5.188;2022-12-29T00:17:44;99930.0;;;12.85;87.79
68376;BME280;55318;52.068;5.188;2022-12-29T00:19:20;99924.0;;;12.82;87.27
68376;BME280;55318;52.068;5.188;2022-12-29T00:22:33;99919.0;;;12.81;87.62
68376;BME280;55318;52.068;5.188;2022-12-29T00:24:13;99933.0;;;12.82;87.65
68376;BME280;55318;52.068;5.188;2022-12-29T00:25:50;99922.0;;;12.8;87.87
68376;BME280;55318;52.068;5.188;2022-12-29T00:27:27;99918.0;;;12.88;87.55
68376;BME280;55318;52.068;5.188;2022-12-29T00:30:40;99922.0;;;12.85;87.57
68376;BME280;55318;52.068;5.188;2022-12-29T00:32:17;99917.0;;;12.87;87.64
68376;BME280;55318;52.068;5.188;2022-12-29T00:33:53;99914.0;;;12.88;87.51
68376;BME280;55318;52.068;5.188;2022-12-29T00:37:12;99910.0;;;12.86;87.27
68376;BME280;55318;52.068;5.188;2022-12-29T00:38:53;99912.0;;;12.86;87.35
68376;BME280;55318;52.068;5.188;2022-12-29T00:40:31;99906.0;;;12.88;87.35
68376;BME280;55318;52.068;5.188;2022-12-29T00:42:08;99905.0;;;12.9;87.14
68376;BME280;55318;52.068;5.188;2022-12-29T00:45:21;99897.0;;;12.91;86.83
68376;BME280;55318;52.068;5.188;2022-12-29T00:46:57;99883.0;;;12.94;86.75
68376;BME280;55318;52.068;5.188;2022-12-29T00:48:33;99888.0;;;13.02;86.4
68376;BME280;55318;52.068;5.188;2022-12-29T00:51:46;99895.0;;;12.91;86.13
68376;BME280;55318;52.068;5.188;2022-12-29T00:53:23;99880.0;;;12.93;85.99
68376;BME280;55318;52.068;5.188;2022-12-29T00:54:59;99880.0;;;12.91;86.5
68376;BME280;55318;52.068;5.188;2022-12-29T00:58:13;99880.0;;;12.85;86.91
68376;BME280;55318;52.068;5.188;2022-12-29T00:59:49;99872.0;;;12.8;86.73
68376;BME280;55318;52.068;5.188;2022-12-29T01:01:26;99878.0;;;12.88;86.7
68376;BME280;55318;52.068;5.188;2022-12-29T01:03:02;99860.0;;;12.9;86.81
68376;BME280;55318;52.068;5.188;2022-12-29T01:06:14;99860.0;;;12.8;87.02
68376;BME280;55318;52.068;5.188;2022-12-29T01:07:51;99859.0;;;12.9;87.29
68376;BME280;55318;52.068;5.188;2022-12-29T01:09:27;99859.0;;;12.67;88.47
68376;BME280;55318;52.068;5.188;2022-12-29T01:12:42;99861.0;;;12.74;89.23
68376;BME280;55318;52.068;5.188;2022-12-29T01:14:19;99857.0;;;12.59;89.96
68376;BME280;55318;52.068;5.188;2022-12-29T01:15:56;99858.0;;;12.5;91.43
68376;BME280;55318;52.068;5.188;2022-12-29T01:17:33;99863.0;;;12.47;92.42
68376;BME280;55318;52.068;5.188;2022-12-29T01:20:47;99860.0;;;12.44;93.34
68376;BME280;55318;52.068;5.188;2022-12-29T01:22:24;99858.0;;;12.47;94.27
68376;BME280;55318;52.068;5.188;2022-12-29T01:24:00;99853.0;;;12.38;94.56
68376;BME280;55318;52.068;5.188;2022-12-29T01:27:14;99860.0;;;12.28;95.61
68376;BME280;55318;52.068;5.188;2022-12-29T01:28:50;99873.0;;;12.27;96.1
68376;BME280;55318;52.068;5.188;2022-12-29T01:30:26;99860.0;;;12.26;96.11
68376;BME280;55318;52.068;5.188;2022-12-29T01:33:41;99866.0;;;12.22;96.6
68376;BME280;55318;52.068;5.188;2022-12-29T01:35:18;99851.0;;;12.05;97.29
68376;BME280;55318;52.068;5.188;2022-12-29T01:36:55;99868.0;;;12.12;97.82
68376;BME280;55318;52.068;5.188;2022-12-29T01:38:32;99865.0;;;12.2;97.6
68376;BME280;55318;52.068;5.188;2022-12-29T01:41:47;99870.0;;;12.21;98.0
68376;BME280;55318;52.068;5.188;2022-12-29T01:43:39;99872.0;;;12.18;98.11
68376;BME280;55318;52.068;5.188;2022-12-29T01:45:17;99880.0;;;12.13;98.45
68376;BME280;55318;52.068;5.188;2022-12-29T01:46:53;99862.0;;;12.09;98.61
68376;BME280;55318;52.068;5.188;2022-12-29T01:50:12;99864.0;;;12.04;98.49
68376;BME280;55318;52.068;5.188;2022-12-29T01:51:53;99862.0;;;12.07;98.7
68376;BME280;55318;52.068;5.188;2022-12-29T01:53:35;99860.0;;;12.12;98.27
68376;BME280;55318;52.068;5.188;2022-12-29T01:55:12;99850.0;;;11.97;98.32
68376;BME280;55318;52.068;5.188;2022-12-29T01:58:30;99852.0;;;12.01;98.21
68376;BME280;55318;52.068;5.188;2022-12-29T02:00:11;99856.0;;;12.02;97.85
68376;BME280;55318;52.068;5.188;2022-12-29T02:01:50;99859.0;;;12.11;97.52
68376;BME280;55318;52.068;5.188;2022-12-29T02:05:09;99861.0;;;12.06;97.26
68376;BME280;55318;52.068;5.188;2022-12-29T02:06:53;99864.0;;;12.17;97.09
68376;BME280;55318;52.068;5.188;2022-12-29T02:08:32;99866.0;;;12.16;96.62
68376;BME280;55318;52.068;5.188;2022-12-29T02:10:08;99866.0;;;12.09;96.28
68376;BME280;55318;52.068;5.188;2022-12-29T02:13:23;99878.0;;;12.18;96.12
68376;BME280;55318;52.068;5.188;2022-12-29T02:15:02;99877.0;;;12.19;95.73
68376;BME280;55318;52.068;5.188;2022-12-29T02:16:49;99876.0;;;12.21;95.45
68376;BME280;55318;52.068;5.188;2022-12-29T02:18:45;99883.0;;;12.27;94.88
68376;BME280;55318;52.068;5.188;2022-12-29T02:20:42;99874.0;;;12.3;94.33
68376;BME280;55318;52.068;5.188;2022-12-29T02:24:23;99872.0;;;12.33;93.98
68376;BME280;55318;52.068;5.188;2022-12-29T02:27:25;99870.0;;;12.19;93.23
68376;BME280;55318;52.068;5.188;2022-12-29T02:30:55;99878.0;;;12.39;92.0
68376;BME280;55318;52.068;5.188;2022-12-29T02:34:35;99868.0;;;12.3;90.89
68376;BME280;55318;52.068;5.188;2022-12-29T02:36:24;99855.0;;;12.28;90.16
68376;BME280;55318;52.068;5.188;2022-12-29T02:38:13;99852.0;;;12.31;89.73
68376;BME280;55318;52.068;5.188;2022-12-29T02:40:00;99865.0;;;12.33;89.47
68376;BME280;55318;52.068;5.188;2022-12-29T02:41:48;99855.0;;;12.27;89.12
68376;BME280;55318;52.068;5.188;2022-12-29T02:43:50;99858.0;;;12.32;88.92
68376;BME280;55318;52.068;5.188;2022-12-29T02:45:31;99845.0;;;12.31;87.88
68376;BME280;55318;52.068;5.188;2022-12-29T02:49:06;99853.0;;;12.28;87.8
68376;BME280;55318;52.068;5.188;2022-12-29T02:50:52;99857.0;;;12.35;87.72
68376;BME280;55318;52.068;5.188;2022-12-29T02:52:36;99862.0;;;12.37;87.81
68376;BME280;55318;52.068;5.188;2022-12-29T02:54:16;99864.0;;;12.36;88.07
68376;BME280;55318;52.068;5.188;2022-12-29T02:55:53;99864.0;;;12.33;87.91
68376;BME280;55318;52.068;5.188;2022-12-29T02:59:09;99872.0;;;12.39;88.08
68376;BME280;55318;52.068;5.188;2022-12-29T03:00:56;99872.0;;;12.35;87.76
68376;BME280;55318;52.068;5.188;2022-12-29T03:02:59;99880.0;;;12.45;87.96
68376;BME280;55318;52.068;5.188;2022-12-29T03:05:04;99873.0;;;12.43;87.94
68376;BME280;55318;52.068;5.188;2022-12-29T03:06:58;99877.0;;;12.41;88.07
68376;BME280;55318;52.068;5.188;2022-12-29T03:08:44;99863.0;;;12.33;88.39
68376;BME280;55318;52.068;5.188;2022-12-29T03:12:29;99866.0;;;12.22;88.72
68376;BME280;55318;52.068;5.188;2022-12-29T03:14:10;99863.0;;;12.26;88.69
68376;BME280;55318;52.068;5.188;2022-12-29T03:15:56;99871.0;;;12.3;88.79
68376;BME280;55318;52.068;5.188;2022-12-29T03:17:46;99861.0;;;12.19;88.65
68376;BME280;55318;52.068;5.188;2022-12-29T03:19:28;99865.0;;;12.24;88.33
68376;BME280;55318;52.068;5.188;2022-12-29T03:21:11;99856.0;;;12.18;88.42
68376;BME280;55318;52.068;5.188;2022-12-29T03:24:38;99864.0;;;12.16;88.36
68376;BME280;55318;52.068;5.188;2022-12-29T03:26:27;99860.0;;;12.07;89.15
68376;BME280;55318;52.068;5.188;2022-12-29T03:28:07;99843.0;;;11.98;89.25
68376;BME280;55318;52.068;5.188;2022-12-29T03:29:48;99852.0;;;12.12;88.85
68376;BME280;55318;52.068;5.188;2022-12-29T03:33:06;99847.0;;;12.11;88.92
68376;BME280;55318;52.068;5.188;2022-12-29T03:34:46;99840.0;;;12.07;88.64
68376;BME280;55318;52.068;5.188;2022-12-29T03:36:32;99842.0;;;11.92;89.19
68376;BME280;55318;52.068;5.188;2022-12-29T03:38:15;99838.0;;;12.14;88.72
68376;BME280;55318;52.068;5.188;2022-12-29T03:39:55;99845.0;;;12.2;88.1
68376;BME280;55318;52.068;5.188;2022-12-29T03:43:11;99838.0;;;12.17;87.58
68376;BME280;55318;52.068;5.188;2022-12-29T03:44:53;99841.0;;;12.01;87.97
68376;BME280;55318;52.068;5.188;2022-12-29T03:46:30;99841.0;;;12.06;87.83
68376;BME280;55318;52.068;5.188;2022-12-29T03:49:43;99836.0;;;12.02;87.72
68376;BME280;55318;52.068;5.188;2022-12-29T03:51:20;99839.0;;;11.99;88.14
68376;BME280;55318;52.068;5.188;2022-12-29T03:52:59;99838.0;;;12.01;87.98
68376;BME280;55318;52.068;5.188;2022-12-29T03:54:35;99832.0;;;12.0;87.88
68376;BME280;55318;52.068;5.188;2022-12-29T03:57:48;99828.0;;;12.05;87.87
68376;BME280;55318;52.068;5.188;2022-12-29T03:59:24;99824.0;;;11.82;88.58
68376;BME280;55318;52.068;5.188;2022-12-29T04:01:00;99832.0;;;11.74;89.16
68376;BME280;55318;52.068;5.188;2022-12-29T04:04:13;99834.0;;;11.78;89.21
68376;BME280;55318;52.068;5.188;2022-12-29T04:05:50;99830.0;;;11.83;89.24
68376;BME280;55318;52.068;5.188;2022-12-29T04:07:25;99833.0;;;11.86;89.0
68376;BME280;55318;52.068;5.188;2022-12-29T04:10:40;99830.0;;;11.84;89.0
68376;BME280;55318;52.068;5.188;2022-12-29T04:12:16;99832.0;;;11.85;88.87
68376;BME280;55318;52.068;5.188;2022-12-29T04:13:53;99843.0;;;11.89;88.88
68376;BME280;55318;52.068;5.188;2022-12-29T04:15:29;99848.0;;;11.87;88.6
68376;BME280;55318;52.068;5.188;2022-12-29T04:18:42;99839.0;;;11.82;88.18
68376;BME280;55318;52.068;5.188;2022-12-29T04:20:19;99850.0;;;11.78;87.9
68376;BME280;55318;52.068;5.188;2022-12-29T04:21:55;99850.0;;;11.78;87.19
68376;BME280;55318;52.068;5.188;2022-12-29T04:25:11;99855.0;;;11.8;86.54
68376;BME280;55318;52.068;5.188;2022-12-29T04:26:47;99853.0;;;11.77;86.04
68376;BME280;55318;52.068;5.188;2022-12-29T04:28:23;99857.0;;;11.75;85.46
68376;BME280;55318;52.068;5.188;2022-12-29T04:31:37;99848.0;;;11.79;85.06
68376;BME280;55318;52.068;5.188;2022-12-29T04:33:13;99855.0;;;11.86;84.35
68376;BME280;55318;52.068;5.188;2022-12-29T04:34:50;99864.0;;;11.84;83.86
68376;BME280;55318;52.068;5.188;2022-12-29T04:39:39;99866.0;;;11.97;82.85
68376;BME280;55318;52.068;5.188;2022-12-29T04:41:16;99860.0;;;11.9;82.94
68376;BME280;55318;52.068;5.188;2022-12-29T04:42:52;99868.0;;;11.9;83.08
68376;BME280;55318;52.068;5.188;2022-12-29T04:46:05;99875.0;;;11.85;82.64
68376;BME280;55318;52.068;5.188;2022-12-29T04:47:41;99876.0;;;11.89;82.79
68376;BME280;55318;52.068;5.188;2022-12-29T04:49:18;99871.0;;;11.93;82.78
68376;BME280;55318;52.068;5.188;2022-12-29T04:52:30;99868.0;;;11.91;82.84
68376;BME280;55318;52.068;5.188;2022-12-29T04:54:07;99873.0;;;11.88;82.97
68376;BME280;55318;52.068;5.188;2022-12-29T04:55:48;99887.0;;;11.9;83.25
68376;BME280;55318;52.068;5.188;2022-12-29T04:57:25;99892.0;;;12.0;82.93
68376;BME280;55318;52.068;5.188;2022-12-29T05:00:38;99896.0;;;11.96;83.09
68376;BME280;55318;52.068;5.188;2022-12-29T05:02:14;99889.0;;;12.03;82.96
68376;BME280;55318;52.068;5.188;2022-12-29T05:03:51;99894.0;;;11.96;82.72
68376;BME280;55318;52.068;5.188;2022-12-29T05:07:05;99888.0;;;11.92;82.56
68376;BME280;55318;52.068;5.188;2022-12-29T05:08:42;99884.0;;;11.82;82.56
68376;BME280;55318;52.068;5.188;2022-12-29T05:10:18;99891.0;;;11.71;82.62
68376;BME280;55318;52.068;5.188;2022-12-29T05:11:54;99893.0;;;11.75;82.41
68376;BME280;55318;52.068;5.188;2022-12-29T05:15:08;99899.0;;;11.71;82.24
68376;BME280;55318;52.068;5.188;2022-12-29T05:16:46;99897.0;;;11.66;82.62
68376;BME280;55318;52.068;5.188;2022-12-29T05:18:22;99905.0;;;11.77;82.71
68376;BME280;55318;52.068;5.188;2022-12-29T05:23:13;99895.0;;;11.63;82.4
68376;BME280;55318;52.068;5.188;2022-12-29T05:24:49;99920.0;;;11.57;82.32
68376;BME280;55318;52.068;5.188;2022-12-29T05:28:02;99909.0;;;11.7;82.12
68376;BME280;55318;52.068;5.188;2022-12-29T05:29:39;99903.0;;;11.64;81.93
68376;BME280;55318;52.068;5.188;2022-12-29T05:31:15;99905.0;;;11.54;82.2
68376;BME280;55318;52.068;5.188;2022-12-29T05:32:51;99908.0;;;11.55;82.27
68376;BME280;55318;52.068;5.188;2022-12-29T05:36:08;99895.0;;;11.57;81.96
68376;BME280;55318;52.068;5.188;2022-12-29T05:37:44;99896.0;;;11.58;82.33
68376;BME280;55318;52.068;5.188;2022-12-29T05:39:21;99889.0;;;11.61;82.33
68376;BME280;55318;52.068;5.188;2022-12-29T05:42:33;99890.0;;;11.68;82.27
68376;BME280;55318;52.068;5.188;2022-12-29T05:45:48;99896.0;;;11.76;81.24
68376;BME280;55318;52.068;5.188;2022-12-29T05:47:25;99903.0;;;11.74;81.33
68376;BME280;55318;52.068;5.188;2022-12-29T05:50:37;99915.0;;;11.59;81.58
68376;BME280;55318;52.068;5.188;2022-12-29T05:52:13;99897.0;;;11.67;81.34
68376;BME280;55318;52.068;5.188;2022-12-29T05:53:50;99907.0;;;11.64;81.23
68376;BME280;55318;52.068;5.188;2022-12-29T05:57:03;99920.0;;;11.65;80.91
68376;BME280;55318;52.068;5.188;2022-12-29T05:58:39;99925.0;;;11.71;80.66
68376;BME280;55318;52.068;5.188;2022-12-29T06:00:16;99943.0;;;11.69;80.48
68376;BME280;55318;52.068;5.188;2022-12-29T06:03:29;99932.0;;;11.58;82.13
68376;BME280;55318;52.068;5.188;2022-12-29T06:05:05;99937.0;;;11.54;82.79
68376;BME280;55318;52.068;5.188;2022-12-29T06:06:42;99937.0;;;11.58;83.13
68376;BME280;55318;52.068;5.188;2022-12-29T06:09:55;99938.0;;;11.51;83.12
68376;BME280;55318;52.068;5.188;2022-12-29T06:11:33;99936.0;;;11.62;82.73
68376;BME280;55318;52.068;5.188;2022-12-29T06:13:09;99937.0;;;11.33;82.41
68376;BME280;55318;52.068;5.188;2022-12-29T06:14:45;99938.0;;;11.43;81.77
68376;BME280;55318;52.068;5.188;2022-12-29T06:17:59;99953.0;;;11.47;82.11
68376;BME280;55318;52.068;5.188;2022-12-29T06:19:36;99932.0;;;11.49;82.28
68376;BME280;55318;52.068;5.188;2022-12-29T06:21:12;99931.0;;;11.29;82.79
68376;BME280;55318;52.068;5.188;2022-12-29T06:24:26;99939.0;;;11.18;83.55
68376;BME280;55318;52.068;5.188;2022-12-29T06:26:03;99939.0;;;11.25;83.97
68376;BME280;55318;52.068;5.188;2022-12-29T06:27:40;99951.0;;;11.22;84.12
68376;BME280;55318;52.068;5.188;2022-12-29T06:29:17;99957.0;;;11.3;84.46
68376;BME280;55318;52.068;5.188;2022-12-29T06:32:30;99966.0;;;11.21;84.07
68376;BME280;55318;52.068;5.188;2022-12-29T06:34:07;99958.0;;;11.2;83.98
68376;BME280;55318;52.068;5.188;2022-12-29T06:35:43;99965.0;;;11.19;83.75
68376;BME280;55318;52.068;5.188;2022-12-29T06:38:57;99968.0;;;11.31;84.22
68376;BME280;55318;52.068;5.188;2022-12-29T06:40:33;99978.0;;;11.27;84.21
68376;BME280;55318;52.068;5.188;2022-12-29T06:42:10;99982.0;;;11.19;82.69
68376;BME280;55318;52.068;5.188;2022-12-29T06:45:22;99969.0;;;11.13;82.47
68376;BME280;55318;52.068;5.188;2022-12-29T06:47:01;99950.0;;;11.14;81.49
68376;BME280;55318;52.068;5.188;2022-12-29T06:48:37;99957.0;;;11.16;81.55
68376;BME280;55318;52.068;5.188;2022-12-29T06:50:14;99953.0;;;11.21;80.24
68376;BME280;55318;52.068;5.188;2022-12-29T06:53:28;99953.0;;;11.32;79.42
68376;BME280;55318;52.068;5.188;2022-12-29T06:55:05;99951.0;;;11.24;78.8
68376;BME280;55318;52.068;5.188;2022-12-29T06:58:20;99962.0;;;11.3;78.98
68376;BME280;55318;52.068;5.188;2022-12-29T06:59:56;99975.0;;;11.25;79.53
68376;BME280;55318;52.068;5.188;2022-12-29T07:01:33;99983.0;;;11.21;79.92
68376;BME280;55318;52.068;5.188;2022-12-29T07:03:10;99974.0;;;11.11;81.27
68376;BME280;55318;52.068;5.188;2022-12-29T07:06:22;99956.0;;;10.94;82.87
68376;BME280;55318;52.068;5.188;2022-12-29T07:07:59;99957.0;;;10.85;83.68
68376;BME280;55318;52.068;5.188;2022-12-29T07:09:36;99971.0;;;10.84;84.31
68376;BME280;55318;52.068;5.188;2022-12-29T07:11:13;99967.0;;;10.76;85.04
68376;BME280;55318;52.068;5.188;2022-12-29T07:14:26;99960.0;;;10.63;86.23
68376;BME280;55318;52.068;5.188;2022-12-29T07:16:05;99974.0;;;10.59;86.61
68376;BME280;55318;52.068;5.188;2022-12-29T07:17:42;99976.0;;;10.46;87.32
68376;BME280;55318;52.068;5.188;2022-12-29T07:20:56;99981.0;;;10.4;88.13
68376;BME280;55318;52.068;5.188;2022-12-29T07:22:32;99981.0;;;10.5;87.73
68376;BME280;55318;52.068;5.188;2022-12-29T07:24:09;99980.0;;;10.36;87.91
68376;BME280;55318;52.068;5.188;2022-12-29T07:25:45;99982.0;;;10.39;88.37
68376;BME280;55318;52.068;5.188;2022-12-29T07:29:00;99984.0;;;10.44;87.95
68376;BME280;55318;52.068;5.188;2022-12-29T07:30:36;99986.0;;;10.46;87.9
68376;BME280;55318;52.068;5.188;2022-12-29T07:32:14;99985.0;;;10.43;87.75
68376;BME280;55318;52.068;5.188;2022-12-29T07:35:28;99988.0;;;10.49;87.48
68376;BME280;55318;52.068;5.188;2022-12-29T07:37:04;99987.0;;;10.48;87.43
68376;BME280;55318;52.068;5.188;2022-12-29T07:38:41;99969.0;;;10.41;87.07
68376;BME280;55318;52.068;5.188;2022-12-29T07:41:57;100000.0;;;10.5;86.88
68376;BME280;55318;52.068;5.188;2022-12-29T07:43:33;99998.0;;;10.57;86.67
68376;BME280;55318;52.068;5.188;2022-12-29T07:45:10;99996.0;;;10.7;86.04
68376;BME280;55318;52.068;5.188;2022-12-29T07:46:47;99997.0;;;10.71;85.7
68376;BME280;55318;52.068;5.188;2022-12-29T07:50:00;99992.0;;;10.61;85.36
68376;BME280;55318;52.068;5.188;2022-12-29T07:51:37;100001.0;;;10.77;85.11
68376;BME280;55318;52.068;5.188;2022-12-29T07:53:14;100003.0;;;10.79;84.26
68376;BME280;55318;52.068;5.188;2022-12-29T07:56:27;100011.0;;;10.78;84.13
68376;BME280;55318;52.068;5.188;2022-12-29T07:58:04;100006.0;;;10.88;83.62
68376;BME280;55318;52.068;5.188;2022-12-29T07:59:40;100017.0;;;10.92;83.43
68376;BME280;55318;52.068;5.188;2022-12-29T08:02:53;100005.0;;;10.89;82.95
68376;BME280;55318;52.068;5.188;2022-12-29T08:04:29;100005.0;;;10.98;82.64
68376;BME280;55318;52.068;5.188;2022-12-29T08:06:08;100001.0;;;11.11;82.39
68376;BME280;55318;52.068;5.188;2022-12-29T08:07:45;100001.0;;;11.17;81.77
68376;BME280;55318;52.068;5.188;2022-12-29T08:10:58;99998.0;;;11.14;81.69
68376;BME280;55318;52.068;5.188;2022-12-29T08:12:34;99996.0;;;11.09;80.95
68376;BME280;55318;52.068;5.188;2022-12-29T08:14:10;100002.0;;;11.17;80.36
68376;BME280;55318;52.068;5.188;2022-12-29T08:17:24;99985.0;;;11.18;79.92
68376;BME280;55318;52.068;5.188;2022-12-29T08:19:00;99989.0;;;11.27;79.08
68376;BME280;55318;52.068;5.188;2022-12-29T08:20:36;99993.0;;;11.29;78.94
68376;BME280;55318;52.068;5.188;2022-12-29T08:23:49;99992.0;;;11.18;78.3
68376;BME280;55318;52.068;5.188;2022-12-29T08:25:25;99996.0;;;11.17;78.69
68376;BME280;55318;52.068;5.188;2022-12-29T08:27:02;99996.0;;;11.24;77.91
68376;BME280;55318;52.068;5.188;2022-12-29T08:28:38;99998.0;;;11.33;77.66
68376;BME280;55318;52.068;5.188;2022-12-29T08:31:51;99993.0;;;11.33;77.27
68376;BME280;55318;52.068;5.188;2022-12-29T08:33:27;100001.0;;;11.25;77.33
68376;BME280;55318;52.068;5.188;2022-12-29T08:35:05;99993.0;;;11.26;77.7
68376;BME280;55318;52.068;5.188;2022-12-29T08:38:18;100000.0;;;11.36;78.14
68376;BME280;55318;52.068;5.188;2022-12-29T08:39:55;100001.0;;;11.39;77.3
68376;BME280;55318;52.068;5.188;2022-12-29T08:41:31;100001.0;;;11.34;76.95
68376;BME280;55318;52.068;5.188;2022-12-29T08:44:44;100011.0;;;11.3;78.53
68376;BME280;55318;52.068;5.188;2022-12-29T08:46:20;100008.0;;;11.25;78.74
68376;BME280;55318;52.068;5.188;2022-12-29T08:47:57;100009.0;;;11.24;79.55
68376;BME280;55318;52.068;5.188;2022-12-29T08:49:33;100009.0;;;11.18;80.72
68376;BME280;55318;52.068;5.188;2022-12-29T08:52:46;100005.0;;;11.05;81.31
68376;BME280;55318;52.068;5.188;2022-12-29T08:54:22;100003.0;;;11.1;80.78
68376;BME280;55318;52.068;5.188;2022-12-29T08:56:00;100009.0;;;11.05;80.59
68376;BME280;55318;52.068;5.188;2022-12-29T08:59:13;100011.0;;;11.2;80.74
68376;BME280;55318;52.068;5.188;2022-12-29T09:00:52;100021.0;;;11.12;81.31
68376;BME280;55318;52.068;5.188;2022-12-29T09:02:28;100007.0;;;11.12;81.8
68376;BME280;55318;52.068;5.188;2022-12-29T09:04:04;100023.0;;;11.1;81.69
68376;BME280;55318;52.068;5.188;2022-12-29T09:07:16;100017.0;;;10.98;82.56
68376;BME280;55318;52.068;5.188;2022-12-29T09:08:53;100027.0;;;11.07;83.16
68376;BME280;55318;52.068;5.188;2022-12-29T09:10:30;100024.0;;;11.14;83.1
68376;BME280;55318;52.068;5.188;2022-12-29T09:13:43;100032.0;;;11.13;83.72
68376;BME280;55318;52.068;5.188;2022-12-29T09:15:20;100026.0;;;11.22;83.66
68376;BME280;55318;52.068;5.188;2022-12-29T09:18:33;100022.0;;;11.01;83.82
68376;BME280;55318;52.068;5.188;2022-12-29T09:20:10;100041.0;;;11.22;83.78
68376;BME280;55318;52.068;5.188;2022-12-29T09:21:47;100041.0;;;11.14;83.56
68376;BME280;55318;52.068;5.188;2022-12-29T09:23:23;100062.0;;;11.0;83.57
68376;BME280;55318;52.068;5.188;2022-12-29T09:25:00;100055.0;;;11.1;84.31
68376;BME280;55318;52.068;5.188;2022-12-29T09:28:13;100055.0;;;11.07;85.29
68376;BME280;55318;52.068;5.188;2022-12-29T09:29:49;100068.0;;;11.0;85.39
68376;BME280;55318;52.068;5.188;2022-12-29T09:31:25;100074.0;;;10.99;86.67
68376;BME280;55318;52.068;5.188;2022-12-29T09:34:39;100097.0;;;10.85;87.84
68376;BME280;55318;52.068;5.188;2022-12-29T09:36:16;100081.0;;;10.76;88.98
68376;BME280;55318;52.068;5.188;2022-12-29T09:41:11;100080.0;;;10.61;90.49
68376;BME280;55318;52.068;5.188;2022-12-29T09:42:59;100087.0;;;10.67;90.76
68376;BME280;55318;52.068;5.188;2022-12-29T09:44:54;100074.0;;;10.56;91.57
68376;BME280;55318;52.068;5.188;2022-12-29T09:46:39;100094.0;;;10.54;92.49
68376;BME280;55318;52.068;5.188;2022-12-29T09:48:19;100099.0;;;10.56;92.45
68376;BME280;55318;52.068;5.188;2022-12-29T09:51:43;100105.0;;;10.53;92.7
68376;BME280;55318;52.068;5.188;2022-12-29T09:53:25;100103.0;;;10.55;92.51
68376;BME280;55318;52.068;5.188;2022-12-29T09:55:10;100117.0;;;10.56;93.04
68376;BME280;55318;52.068;5.188;2022-12-29T09:56:50;100109.0;;;10.45;93.38
68376;BME280;55318;52.068;5.188;2022-12-29T10:00:15;100114.0;;;10.6;93.28
68376;BME280;55318;52.068;5.188;2022-12-29T10:01:56;100118.0;;;10.73;92.75
68376;BME280;55318;52.068;5.188;2022-12-29T10:03:45;100114.0;;;10.63;92.94
68376;BME280;55318;52.068;5.188;2022-12-29T10:05:31;100120.0;;;10.57;93.04
68376;BME280;55318;52.068;5.188;2022-12-29T10:07:17;100131.0;;;10.67;92.75
68376;BME280;55318;52.068;5.188;2022-12-29T10:09:02;100133.0;;;10.53;92.33
68376;BME280;55318;52.068;5.188;2022-12-29T10:12:36;100128.0;;;10.59;92.74
68376;BME280;55318;52.068;5.188;2022-12-29T10:14:36;100145.0;;;10.52;93.06
68376;BME280;55318;52.068;5.188;2022-12-29T10:16:20;100149.0;;;10.52;93.16
68376;BME280;55318;52.068;5.188;2022-12-29T10:18:12;100145.0;;;10.58;93.17
68376;BME280;55318;52.068;5.188;2022-12-29T10:20:11;100159.0;;;10.58;93.17
68376;BME280;55318;52.068;5.188;2022-12-29T10:22:01;100159.0;;;10.59;93.02
68376;BME280;55318;52.068;5.188;2022-12-29T10:23:48;100161.0;;;10.7;93.48
68376;BME280;55318;52.068;5.188;2022-12-29T10:27:12;100170.0;;;10.72;92.99
68376;BME280;55318;52.068;5.188;2022-12-29T10:28:52;100165.0;;;10.73;92.95
68376;BME280;55318;52.068;5.188;2022-12-29T10:30:32;100169.0;;;10.67;92.65
68376;BME280;55318;52.068;5.188;2022-12-29T10:32:27;100169.0;;;10.57;93.04
68376;BME280;55318;52.068;5.188;2022-12-29T10:34:13;100173.0;;;10.77;92.98
68376;BME280;55318;52.068;5.188;2022-12-29T10:37:38;100172.0;;;10.72;93.41
68376;BME280;55318;52.068;5.188;2022-12-29T10:39:21;100184.0;;;10.77;93.11
68376;BME280;55318;52.068;5.188;2022-12-29T10:41:10;100177.0;;;10.77;93.01
68376;BME280;55318;52.068;5.188;2022-12-29T10:42:53;100185.0;;;10.81;93.0
68376;BME280;55318;52.068;5.188;2022-12-29T10:44:31;100193.0;;;10.79;92.97
68376;BME280;55318;52.068;5.188;2022-12-29T10:47:57;100200.0;;;10.74;93.04
68376;BME280;55318;52.068;5.188;2022-12-29T10:51:25;100205.0;;;10.92;92.76
68376;BME280;55318;52.068;5.188;2022-12-29T10:53:04;100199.0;;;10.85;93.05
68376;BME280;55318;52.068;5.188;2022-12-29T10:56:30;100218.0;;;10.93;93.07
68376;BME280;55318;52.068;5.188;2022-12-29T10:58:12;100223.0;;;10.86;93.22
68376;BME280;55318;52.068;5.188;2022-12-29T10:59:50;100221.0;;;11.04;92.9
68376;BME280;55318;52.068;5.188;2022-12-29T11:01:32;100236.0;;;11.13;92.65
68376;BME280;55318;52.068;5.188;2022-12-29T11:05:26;100230.0;;;11.11;92.16
68376;BME280;55318;52.068;5.188;2022-12-29T11:07:09;100231.0;;;11.2;91.91
68376;BME280;55318;52.068;5.188;2022-12-29T11:08:52;100238.0;;;11.17;91.83
68376;BME280;55318;52.068;5.188;2022-12-29T11:10:37;100239.0;;;11.19;90.96
68376;BME280;55318;52.068;5.188;2022-12-29T11:12:18;100244.0;;;11.31;91.46
68376;BME280;55318;52.068;5.188;2022-12-29T11:13:59;100255.0;;;11.31;91.27
68376;BME280;55318;52.068;5.188;2022-12-29T11:17:17;100259.0;;;11.36;91.39
68376;BME280;55318;52.068;5.188;2022-12-29T11:18:53;100253.0;;;11.42;91.18
68376;BME280;55318;52.068;5.188;2022-12-29T11:20:32;100264.0;;;11.47;90.47
68376;BME280;55318;52.068;5.188;2022-12-29T11:22:18;100260.0;;;11.45;89.5
68376;BME280;55318;52.068;5.188;2022-12-29T11:25:34;100264.0;;;11.44;88.88
68376;BME280;55318;52.068;5.188;2022-12-29T11:30:24;100271.0;;;11.39;88.17